createdAt,value
2018-12-25T00:06:59.727Z,93.60
2018-12-25T00:18:52.872Z,93.70
2018-12-25T00:26:54.178Z,93.50
2018-12-25T00:35:21.679Z,93.60
2018-12-25T01:38:53.249Z,93.30
2018-12-25T01:41:38.345Z,92.90
2018-12-25T02:19:56.677Z,93.40
2018-12-25T02:43:36.134Z,92.80
2018-12-25T02:46:05.479Z,92.90
2018-12-25T03:01:04.761Z,93.00
2018-12-25T03:03:36.821Z,93.00
2018-12-25T03:06:06.214Z,93.20
2018-12-25T03:11:04.372Z,92.60
2018-12-25T03:13:36.929Z,92.70
2018-12-25T03:16:24.820Z,92.80
2018-12-25T03:21:23.378Z,92.70
2018-12-25T03:23:52.709Z,92.90
2018-12-25T03:26:22.308Z,93.20
2018-12-25T03:28:51.694Z,92.50
2018-12-25T03:31:21.114Z,92.70
2018-12-25T03:33:56.709Z,92.80
2018-12-25T03:36:26.046Z,93.10
2018-12-25T03:38:55.401Z,93.10
2018-12-25T03:41:28.229Z,92.90
2018-12-25T03:43:57.605Z,92.90
2018-12-25T03:46:26.941Z,92.80
2018-12-25T03:48:56.288Z,92.70
2018-12-25T03:51:25.638Z,92.90
2018-12-25T03:53:55.066Z,92.50
2018-12-25T03:56:24.685Z,92.40
2018-12-25T03:58:54.040Z,93.10
2018-12-25T04:01:26.510Z,92.80
2018-12-25T04:03:55.872Z,93.00
2018-12-25T04:06:25.460Z,92.50
2018-12-25T04:08:54.845Z,92.60
2018-12-25T04:11:24.265Z,92.40
2018-12-25T04:13:56.498Z,91.90
2018-12-25T04:16:25.841Z,91.80
2018-12-25T04:18:58.449Z,91.90
2018-12-25T04:21:28.064Z,92.00
2018-12-25T04:23:57.673Z,92.70
2018-12-25T04:26:27.041Z,92.10
2018-12-25T04:28:56.381Z,92.30
2018-12-25T04:31:25.737Z,92.10
2018-12-25T04:33:58.289Z,92.00
2018-12-25T04:36:27.758Z,92.30
2018-12-25T04:38:57.104Z,92.10
2018-12-25T04:41:26.487Z,92.10
2018-12-25T04:44:14.140Z,92.20
2018-12-25T04:46:46.180Z,92.20
2018-12-25T04:49:21.568Z,91.90
2018-12-25T04:51:51.760Z,91.70
2018-12-25T04:54:24.384Z,92.00
2018-12-25T04:56:59.836Z,92.00
2018-12-25T04:59:29.181Z,91.90
2018-12-25T05:01:58.528Z,91.80
2018-12-25T05:04:28.208Z,91.80
2018-12-25T05:06:57.577Z,91.70
2018-12-25T05:09:36.013Z,91.90
2018-12-25T05:12:05.361Z,91.80
2018-12-25T05:14:34.735Z,91.90
2018-12-25T05:17:06.773Z,91.80
2018-12-25T05:19:36.113Z,92.10
2018-12-25T05:22:05.468Z,92.10
2018-12-25T05:24:34.816Z,92.30
2018-12-25T05:27:06.864Z,91.80
2018-12-25T05:29:36.208Z,91.90
2018-12-25T05:32:08.764Z,91.90
2018-12-25T05:34:38.186Z,92.10
2018-12-25T05:37:07.804Z,92.10
2018-12-25T05:39:37.147Z,92.10
2018-12-25T05:42:06.496Z,92.00
2018-12-25T05:44:35.835Z,91.70
2018-12-25T05:47:05.213Z,92.10
2018-12-25T05:49:34.556Z,92.20
2018-12-25T05:52:10.064Z,91.90
2018-12-25T05:54:39.422Z,92.20
2018-12-25T05:57:08.779Z,92.10
2018-12-25T05:59:41.220Z,92.10
2018-12-25T06:02:10.597Z,91.80
2018-12-25T06:04:58.404Z,91.90
2018-12-25T06:07:28.015Z,92.10
2018-12-25T06:09:57.350Z,91.80
2018-12-25T06:12:26.712Z,91.90
2018-12-25T06:14:56.053Z,91.70
2018-12-25T06:17:25.664Z,91.80
2018-12-25T06:19:58.100Z,91.90
2018-12-25T06:22:27.458Z,91.80
2018-12-25T06:24:56.808Z,92.00
2018-12-25T06:27:26.531Z,92.20
2018-12-25T06:29:56.112Z,92.10
2018-12-25T06:32:25.717Z,92.00
2018-12-25T06:35:10.361Z,91.90
2018-12-25T06:37:39.700Z,92.00
2018-12-25T06:40:09.054Z,92.00
2018-12-25T06:42:38.404Z,91.90
2018-12-25T06:45:07.755Z,91.80
2018-12-25T06:47:37.422Z,92.10
2018-12-25T06:50:16.092Z,91.90
2018-12-25T06:52:45.440Z,91.90
2018-12-25T06:55:14.868Z,92.20
2018-12-25T06:57:46.681Z,92.00
2018-12-25T07:00:16.280Z,92.30
2018-12-25T07:02:48.345Z,91.90
2018-12-25T07:05:17.705Z,91.90
2018-12-25T07:07:47.060Z,91.80
2018-12-25T07:10:16.416Z,91.90
2018-12-25T07:12:57.989Z,91.90
2018-12-25T07:15:32.995Z,91.80
2018-12-25T07:17:58.639Z,92.10
2018-12-25T07:20:43.548Z,92.10
2018-12-25T07:23:19.415Z,91.90
2018-12-25T07:25:48.839Z,91.90
2018-12-25T07:28:21.228Z,91.90
2018-12-25T07:30:50.578Z,92.30
2018-12-25T07:33:19.917Z,92.10
2018-12-25T07:36:09.399Z,92.10
2018-12-25T07:38:38.384Z,92.40
2018-12-25T07:41:07.744Z,92.10
2018-12-25T07:43:37.348Z,92.40
2018-12-25T07:46:06.688Z,92.10
2018-12-25T07:48:36.172Z,92.00
2018-12-25T07:51:05.536Z,91.90
2018-12-25T07:53:34.924Z,92.20
2018-12-25T07:56:04.294Z,92.30
2018-12-25T07:58:45.776Z,92.50
2018-12-25T08:01:15.128Z,92.40
2018-12-25T08:03:44.825Z,92.40
2018-12-25T08:06:14.183Z,92.70
2018-12-25T08:08:52.740Z,92.30
2018-12-25T08:11:22.365Z,92.20
2018-12-25T08:13:54.451Z,92.50
2018-12-25T08:16:23.820Z,92.10
2018-12-25T08:18:56.533Z,92.40
2018-12-25T08:21:29.355Z,92.10
2018-12-25T08:24:16.973Z,92.10
2018-12-25T08:26:52.810Z,92.10
2018-12-25T08:29:25.140Z,92.40
2018-12-25T08:31:54.477Z,92.20
2018-12-25T08:34:23.825Z,92.50
2018-12-25T08:37:02.471Z,92.60
2018-12-25T08:39:34.588Z,92.00
2018-12-25T08:42:04.032Z,91.70
2018-12-25T08:44:36.768Z,92.00
2018-12-25T08:47:06.140Z,91.80
2018-12-25T08:49:38.580Z,91.70
2018-12-25T08:52:10.623Z,91.70
2018-12-25T08:54:49.050Z,91.40
2018-12-25T08:57:18.428Z,91.40
2018-12-25T08:59:47.768Z,91.40
2018-12-25T09:02:23.133Z,91.30
2018-12-25T09:04:52.473Z,91.30
2018-12-25T09:07:21.848Z,91.60
2018-12-25T09:09:54.329Z,91.40
2018-12-25T09:12:23.798Z,91.00
2018-12-25T09:14:53.123Z,91.00
2018-12-25T09:17:22.451Z,91.30
2018-12-25T09:19:54.513Z,91.10
2018-12-25T09:22:36.191Z,90.90
2018-12-25T09:25:06.047Z,91.10
2018-12-25T09:27:38.076Z,91.30
2018-12-25T09:30:10.564Z,90.90
2018-12-25T09:32:43.048Z,90.70
2018-12-25T09:35:12.411Z,90.80
2018-12-25T09:37:41.764Z,90.60
2018-12-25T09:40:13.849Z,91.00
2018-12-25T09:42:43.197Z,90.80
2018-12-25T09:45:27.709Z,91.10
2018-12-25T09:48:00.437Z,91.10
2018-12-25T09:50:32.485Z,91.40
2018-12-25T09:53:01.848Z,91.10
2018-12-25T09:55:33.881Z,91.10
2018-12-25T09:58:03.236Z,90.90
2018-12-25T10:00:50.852Z,91.30
2018-12-25T10:03:23.857Z,91.10
2018-12-25T10:06:08.236Z,90.90
2018-12-25T10:08:37.585Z,91.20
2018-12-25T10:11:06.948Z,91.30
2018-12-25T10:13:39.493Z,91.10
2018-12-25T10:16:21.121Z,91.30
2018-12-25T10:18:50.469Z,91.70
2018-12-25T10:21:19.840Z,91.20
2018-12-25T10:23:49.439Z,90.70
2018-12-25T10:26:28.004Z,90.70
2018-12-25T10:44:57.956Z,85.50
2018-12-25T10:50:26.384Z,85.00
2018-12-25T10:53:14.956Z,85.30
2018-12-25T10:58:36.848Z,84.00
2018-12-25T11:14:02.332Z,81.90
2018-12-25T11:34:35.999Z,79.30
2018-12-25T13:27:04.828Z,73.80
2018-12-25T13:29:50.378Z,73.80
2018-12-25T13:32:19.808Z,73.40
2018-12-25T13:34:49.157Z,72.90
2018-12-25T13:37:21.040Z,73.10
2018-12-25T13:39:50.464Z,73.20
2018-12-25T13:42:28.992Z,73.50
2018-12-25T13:45:16.656Z,73.20
2018-12-25T13:47:46.012Z,73.30
2018-12-25T13:50:15.632Z,73.20
2018-12-25T13:52:48.098Z,73.10
2018-12-25T13:55:23.686Z,73.70
2018-12-25T13:57:53.024Z,74.30
2018-12-25T14:00:22.626Z,74.00
2018-12-25T14:02:51.977Z,73.40
2018-12-25T14:05:24.040Z,73.70
2018-12-25T14:07:53.610Z,73.20
2018-12-25T14:10:23.032Z,73.00
2018-12-25T14:12:55.500Z,73.00
2018-12-25T14:15:24.850Z,73.00
2018-12-25T14:17:54.192Z,72.00
2018-12-25T14:20:23.800Z,72.00
2018-12-25T14:22:53.152Z,73.10
2018-12-25T14:25:31.820Z,72.30
2018-12-25T14:28:13.420Z,71.70
2018-12-25T14:31:01.140Z,71.70
2018-12-25T14:33:31.156Z,72.00
2018-12-25T14:36:00.521Z,72.00
2018-12-25T14:38:30.115Z,71.60
2018-12-25T14:41:02.160Z,71.20
2018-12-25T14:43:34.860Z,71.60
2018-12-25T14:46:07.175Z,72.30
2018-12-25T14:48:36.792Z,72.40
2018-12-25T14:51:06.152Z,73.20
2018-12-25T14:53:39.052Z,73.30
2018-12-25T14:56:08.656Z,72.50
2018-12-25T14:58:53.488Z,72.20
2018-12-25T15:01:23.077Z,72.20
2018-12-25T15:04:07.684Z,73.00
2018-12-25T15:06:55.340Z,72.40
2018-12-25T15:09:24.704Z,73.00
2018-12-25T15:11:54.062Z,73.00
2018-12-25T15:14:23.412Z,73.80
2018-12-25T15:16:52.772Z,74.20
2018-12-25T15:19:25.508Z,74.10
2018-12-25T15:22:04.008Z,74.80
2018-12-25T15:24:36.708Z,75.40
2018-12-25T15:27:18.364Z,75.70
2018-12-25T15:29:50.466Z,75.80
2018-12-25T15:32:19.821Z,75.80
2018-12-25T15:34:53.117Z,76.80
2018-12-25T15:37:40.676Z,77.30
2018-12-25T15:40:10.029Z,78.00
2018-12-25T15:42:39.404Z,78.90
2018-12-25T15:45:09.112Z,80.50
2018-12-25T15:47:50.733Z,81.10
2018-12-25T15:50:20.336Z,81.20
2018-12-25T15:53:01.985Z,81.80
2018-12-25T15:55:31.332Z,81.40
2018-12-25T15:58:19.725Z,81.60
2018-12-25T16:00:49.068Z,81.80
2018-12-25T16:03:18.428Z,82.40
2018-12-25T16:06:03.034Z,82.00
2018-12-25T16:08:35.081Z,82.70
2018-12-25T16:11:04.420Z,83.30
2018-12-25T16:13:52.036Z,83.70
2018-12-25T16:16:24.740Z,84.20
2018-12-25T16:19:06.335Z,84.20
2018-12-25T16:21:35.676Z,85.10
2018-12-25T16:24:05.117Z,85.80
2018-12-25T16:26:40.451Z,86.30
2018-12-25T16:29:12.576Z,86.90
2018-12-25T16:31:41.921Z,86.10
2018-12-25T16:34:26.590Z,87.10
2018-12-25T16:36:56.432Z,86.50
2018-12-25T16:39:28.492Z,86.90
2018-12-25T16:42:16.308Z,87.10
2018-12-25T16:44:45.672Z,87.80
2018-12-25T16:47:24.011Z,87.10
2018-12-25T16:50:02.497Z,87.10
2018-12-25T16:52:32.088Z,87.80
2018-12-25T16:55:01.454Z,87.10
2018-12-25T16:57:33.936Z,87.70
2018-12-25T17:00:15.548Z,86.90
2018-12-25T17:02:45.157Z,87.70
2018-12-25T17:05:14.584Z,88.30
2018-12-25T17:07:47.548Z,88.90
2018-12-25T17:10:16.909Z,88.50
2018-12-25T17:12:52.841Z,89.20
2018-12-25T17:15:22.188Z,88.50
2018-12-25T17:17:54.757Z,90.00
2018-12-25T17:20:24.109Z,88.90
2018-12-25T17:22:53.474Z,89.80
2018-12-25T17:25:29.060Z,90.60
2018-12-25T17:28:10.827Z,90.40
2018-12-25T17:30:55.572Z,90.00
2018-12-25T17:33:24.939Z,89.50
2018-12-25T17:35:54.312Z,88.90
2018-12-25T17:38:23.939Z,89.10
2018-12-25T17:40:55.997Z,89.30
2018-12-25T17:43:43.868Z,90.00
2018-12-25T17:46:13.224Z,89.20
2018-12-25T17:48:54.861Z,89.90
2018-12-25T17:51:26.920Z,90.20
2018-12-25T17:53:56.540Z,90.00
2018-12-25T17:56:25.892Z,90.00
2018-12-25T17:58:55.249Z,90.30
2018-12-25T18:01:24.608Z,90.70
2018-12-25T18:04:03.148Z,91.00
2018-12-25T18:06:38.717Z,91.20
2018-12-25T18:09:08.087Z,90.50
2018-12-25T18:11:37.440Z,90.80
2018-12-25T18:14:10.267Z,91.00
2018-12-25T18:16:39.621Z,90.50
2018-12-25T18:19:09.224Z,91.00
2018-12-25T18:21:38.568Z,90.90
2018-12-25T18:24:07.957Z,91.40
2018-12-25T18:26:55.556Z,90.90
2018-12-25T18:29:24.908Z,90.80
2018-12-25T18:31:54.264Z,91.10
2018-12-25T18:34:23.620Z,90.60
2018-12-25T18:36:52.961Z,90.90
2018-12-25T18:39:41.056Z,91.10
2018-12-25T18:42:13.395Z,91.30
2018-12-25T18:44:45.428Z,91.50
2018-12-25T18:47:32.860Z,90.90
2018-12-25T18:50:12.778Z,91.20
2018-12-25T18:52:57.304Z,91.60
2018-12-25T18:55:35.875Z,91.90
2018-12-25T18:58:05.288Z,91.40
2018-12-25T19:00:34.969Z,91.30
2018-12-25T19:03:04.390Z,91.60
2018-12-25T19:05:33.749Z,91.90
2018-12-25T19:08:03.086Z,91.10
2018-12-25T19:10:32.452Z,91.50
2018-12-25T19:13:04.621Z,91.70
2018-12-25T19:15:35.117Z,92.20
2018-12-25T19:18:10.553Z,92.40
2018-12-25T19:20:39.918Z,91.70
2018-12-25T19:23:09.281Z,92.00
2018-12-25T19:25:48.157Z,92.20
2018-12-25T19:28:17.503Z,92.20
2018-12-25T19:31:02.113Z,91.90
2018-12-25T19:33:34.162Z,92.10
2018-12-25T19:38:44.366Z,92.40
2018-12-25T19:43:42.625Z,92.40
2018-12-25T19:46:21.264Z,92.60
2018-12-25T19:48:50.685Z,92.60
2018-12-25T19:51:20.037Z,92.60
2018-12-25T19:53:58.555Z,92.50
2018-12-25T19:56:46.027Z,92.50
2018-12-25T19:59:15.465Z,92.70
2018-12-25T20:01:44.952Z,93.00
2018-12-25T20:04:48.668Z,92.60
2018-12-25T20:07:45.916Z,93.00
2018-12-25T20:11:22.761Z,92.70
2018-12-25T20:17:31.385Z,93.10
2018-12-25T20:23:53.207Z,93.20
2018-12-25T20:27:25.100Z,93.20
2018-12-25T20:30:35.432Z,93.20
2018-12-25T20:33:33.497Z,93.30
2018-12-25T20:36:52.954Z,93.40
2018-12-25T20:40:01.717Z,93.50
2018-12-25T20:43:06.228Z,93.70
2018-12-25T20:48:55.028Z,93.80
2018-12-25T20:52:29.950Z,93.80
2018-12-25T20:55:44.108Z,94.00
2018-12-25T20:58:43.470Z,93.70
2018-12-25T21:01:50.359Z,93.80
2018-12-25T21:04:50.980Z,94.20
2018-12-25T21:08:03.805Z,94.10
2018-12-25T21:14:22.354Z,94.00
2018-12-25T21:17:30.501Z,94.00
2018-12-25T21:20:56.325Z,94.00
2018-12-25T21:24:01.996Z,94.30
2018-12-25T21:27:13.524Z,94.10
2018-12-25T21:29:46.133Z,94.30
2018-12-25T21:32:15.638Z,94.20
2018-12-25T21:34:46.045Z,93.90
2018-12-25T21:37:15.543Z,93.80
2018-12-25T21:39:45.140Z,93.70
2018-12-25T21:42:14.651Z,93.70
2018-12-25T21:44:56.848Z,93.80
2018-12-25T21:47:26.335Z,94.10
2018-12-25T21:49:55.944Z,93.50
2018-12-25T21:52:25.444Z,93.90
2018-12-25T21:55:01.413Z,94.20
2018-12-25T21:57:34.128Z,93.80
2018-12-25T22:00:03.586Z,94.20
2018-12-25T22:02:33.010Z,94.20
2018-12-25T22:05:05.210Z,94.00
2018-12-25T22:07:37.429Z,94.10
2018-12-25T22:10:09.950Z,93.90
2018-12-25T22:12:39.608Z,94.00
2018-12-25T22:20:40.416Z,94.10
2018-12-25T22:25:41.723Z,94.20
2018-12-25T22:28:14.089Z,94.10
2018-12-25T22:30:55.593Z,93.80
2018-12-25T22:33:24.931Z,93.80
2018-12-25T22:35:54.282Z,93.90
2018-12-25T22:38:23.868Z,94.00
2018-12-25T22:40:53.219Z,93.60
2018-12-25T22:45:54.754Z,93.10
2018-12-25T22:48:39.114Z,93.10
2018-12-25T22:51:11.157Z,93.20
2018-12-25T22:53:43.984Z,93.50
2018-12-25T22:56:13.332Z,93.70
2018-12-25T22:58:42.665Z,93.90
2018-12-25T23:01:12.100Z,94.00
2018-12-25T23:03:44.660Z,94.20
2018-12-25T23:06:20.150Z,94.30
2018-12-25T23:11:21.985Z,94.40
2018-12-25T23:13:51.348Z,94.10
2018-12-25T23:16:20.708Z,94.00
2018-12-25T23:21:22.024Z,94.00
2018-12-25T23:23:54.821Z,94.40
2018-12-25T23:26:24.168Z,94.30
2018-12-25T23:31:22.785Z,94.00
2018-12-25T23:33:52.525Z,94.40
2018-12-25T23:38:50.952Z,94.30
2018-12-25T23:46:20.840Z,94.20
2018-12-25T23:51:25.244Z,94.30
2018-12-25T23:53:54.589Z,94.30
2018-12-25T23:56:23.949Z,94.20
2018-12-25T23:58:56.956Z,94.20
